Terminal Aerodrome Forecast
Issued by NWS

Home | Current Version | Previous Version | Text Only | Print | Product List | Glossary On
Versions: 1 2 3 4 5 6 7 8 9 10 11 12 13 14 15 16
000
FTUS41 KBTV 181120
TAFSLK
TAF
KSLK 181120Z 1812/1912 15005KT 5SM -SN BR SCT015 OVC025
      TEMPO 1812/1815 2SM -SNPL BR BKN015
     FM181600 15005KT P6SM VCSH SCT015 OVC025
     FM182100 21004KT P6SM VCSH OVC025
     FM190000 23004KT P6SM VCSH OVC010
     FM190300 23004KT P6SM OVC008=

USA.gov is the U.S. government's official web portal to all federal, state and local government web resources and services.